sensor_id;sensor_type;location;lat;lon;timestamp;pressure;altitude;pressure_sealevel;temperature;humidity
29907;BME280;16776;50.958;10.994;2023-09-19T00:00:17;97742.66;;;17.29;100.00
29907;BME280;16776;50.958;10.994;2023-09-19T00:02:45;97734.31;;;17.24;100.00
29907;BME280;16776;50.958;10.994;2023-09-19T00:05:12;97731.00;;;17.22;100.00
29907;BME280;16776;50.958;10.994;2023-09-19T00:07:39;97736.19;;;17.22;100.00
29907;BME280;16776;50.958;10.994;2023-09-19T00:10:06;97743.28;;;17.20;100.00
29907;BME280;16776;50.958;10.994;2023-09-19T00:12:34;97733.06;;;17.17;100.00
29907;BME280;16776;50.958;10.994;2023-09-19T00:15:01;97729.75;;;17.15;100.00
29907;BME280;16776;50.958;10.994;2023-09-19T00:17:32;97729.75;;;17.15;100.00
29907;BME280;16776;50.958;10.994;2023-09-19T00:20:00;97723.09;;;17.11;100.00
29907;BME280;16776;50.958;10.994;2023-09-19T00:22:32;97726.75;;;17.08;100.00
29907;BME280;16776;50.958;10.994;2023-09-19T00:24:59;97721.63;;;17.07;100.00
29907;BME280;16776;50.958;10.994;2023-09-19T00:27:26;97721.81;;;17.04;100.00
29907;BME280;16776;50.958;10.994;2023-09-19T00:29:53;97728.09;;;17.01;100.00
29907;BME280;16776;50.958;10.994;2023-09-19T00:32:19;97726.50;;;16.98;100.00
29907;BME280;16776;50.958;10.994;2023-09-19T00:34:47;97724.00;;;16.97;100.00
29907;BME280;16776;50.958;10.994;2023-09-19T00:37:14;97718.16;;;16.93;100.00
29907;BME280;16776;50.958;10.994;2023-09-19T00:39:43;97733.97;;;16.90;100.00
29907;BME280;16776;50.958;10.994;2023-09-19T00:42:17;97730.97;;;16.96;100.00
29907;BME280;16776;50.958;10.994;2023-09-19T00:44:46;97739.47;;;16.86;100.00
29907;BME280;16776;50.958;10.994;2023-09-19T00:47:12;97736.13;;;16.84;100.00
29907;BME280;16776;50.958;10.994;2023-09-19T00:49:42;97738.84;;;16.82;100.00
29907;BME280;16776;50.958;10.994;2023-09-19T00:52:11;97749.03;;;16.85;100.00
29907;BME280;16776;50.958;10.994;2023-09-19T00:54:39;97745.00;;;16.81;100.00
29907;BME280;16776;50.958;10.994;2023-09-19T00:57:05;97745.06;;;16.80;100.00
29907;BME280;16776;50.958;10.994;2023-09-19T00:59:33;97754.66;;;16.79;100.00
29907;BME280;16776;50.958;10.994;2023-09-19T01:02:03;97757.25;;;16.79;100.00
29907;BME280;16776;50.958;10.994;2023-09-19T01:04:30;97758.91;;;16.80;100.00
29907;BME280;16776;50.958;10.994;2023-09-19T01:06:57;97774.59;;;16.79;100.00
29907;BME280;16776;50.958;10.994;2023-09-19T01:09:25;97778.78;;;16.81;100.00
29907;BME280;16776;50.958;10.994;2023-09-19T01:11:58;97777.72;;;16.84;100.00
29907;BME280;16776;50.958;10.994;2023-09-19T01:14:32;97778.66;;;16.83;100.00
29907;BME280;16776;50.958;10.994;2023-09-19T01:17:04;97776.19;;;16.81;100.00
29907;BME280;16776;50.958;10.994;2023-09-19T01:22:37;97784.00;;;16.81;100.00
29907;BME280;16776;50.958;10.994;2023-09-19T01:28:30;97790.88;;;16.82;100.00
29907;BME280;16776;50.958;10.994;2023-09-19T01:31:00;97802.59;;;16.75;100.00
29907;BME280;16776;50.958;10.994;2023-09-19T01:33:53;97796.13;;;16.68;100.00
29907;BME280;16776;50.958;10.994;2023-09-19T01:36:16;97807.44;;;16.67;100.00
29907;BME280;16776;50.958;10.994;2023-09-19T01:38:42;97810.13;;;16.66;100.00
29907;BME280;16776;50.958;10.994;2023-09-19T01:41:12;97811.72;;;16.68;100.00
29907;BME280;16776;50.958;10.994;2023-09-19T01:43:43;97818.03;;;16.64;100.00
29907;BME280;16776;50.958;10.994;2023-09-19T01:46:16;97808.28;;;16.68;100.00
29907;BME280;16776;50.958;10.994;2023-09-19T01:48:54;97814.22;;;16.70;100.00
29907;BME280;16776;50.958;10.994;2023-09-19T01:51:33;97814.94;;;16.72;100.00
29907;BME280;16776;50.958;10.994;2023-09-19T01:54:03;97821.38;;;16.66;100.00
29907;BME280;16776;50.958;10.994;2023-09-19T01:56:35;97818.69;;;16.68;100.00
29907;BME280;16776;50.958;10.994;2023-09-19T01:59:06;97814.50;;;16.65;100.00
29907;BME280;16776;50.958;10.994;2023-09-19T02:01:37;97818.88;;;16.65;100.00
29907;BME280;16776;50.958;10.994;2023-09-19T02:04:04;97798.31;;;16.47;100.00
29907;BME280;16776;50.958;10.994;2023-09-19T02:06:31;97822.91;;;16.56;100.00
29907;BME280;16776;50.958;10.994;2023-09-19T02:08:59;97821.31;;;16.53;100.00
29907;BME280;16776;50.958;10.994;2023-09-19T02:11:25;97823.19;;;16.51;100.00
29907;BME280;16776;50.958;10.994;2023-09-19T02:13:52;97828.50;;;16.50;100.00
29907;BME280;16776;50.958;10.994;2023-09-19T02:16:19;97827.00;;;16.46;100.00
29907;BME280;16776;50.958;10.994;2023-09-19T02:18:48;97835.47;;;16.49;100.00
29907;BME280;16776;50.958;10.994;2023-09-19T02:21:15;97833.13;;;16.45;100.00
29907;BME280;16776;50.958;10.994;2023-09-19T02:23:42;97835.00;;;16.43;100.00
29907;BME280;16776;50.958;10.994;2023-09-19T02:26:09;97836.84;;;16.41;100.00
29907;BME280;16776;50.958;10.994;2023-09-19T02:28:38;97839.47;;;16.41;100.00
29907;BME280;16776;50.958;10.994;2023-09-19T02:31:04;97839.53;;;16.39;100.00
29907;BME280;16776;50.958;10.994;2023-09-19T02:33:31;97844.88;;;16.38;100.00
29907;BME280;16776;50.958;10.994;2023-09-19T02:35:59;97843.72;;;16.42;100.00
29907;BME280;16776;50.958;10.994;2023-09-19T02:38:29;97837.06;;;16.38;100.00
29907;BME280;16776;50.958;10.994;2023-09-19T02:40:56;97843.19;;;16.37;100.00
29907;BME280;16776;50.958;10.994;2023-09-19T02:43:23;97842.34;;;16.36;100.00
29907;BME280;16776;50.958;10.994;2023-09-19T02:45:50;97837.25;;;16.35;100.00
29907;BME280;16776;50.958;10.994;2023-09-19T02:48:18;97848.56;;;16.34;100.00
29907;BME280;16776;50.958;10.994;2023-09-19T02:50:45;97853.84;;;16.32;100.00
29907;BME280;16776;50.958;10.994;2023-09-19T02:53:13;97855.53;;;16.33;100.00
29907;BME280;16776;50.958;10.994;2023-09-19T02:55:40;97853.22;;;16.29;100.00
29907;BME280;16776;50.958;10.994;2023-09-19T02:58:08;97860.25;;;16.27;100.00
29907;BME280;16776;50.958;10.994;2023-09-19T03:00:36;97862.03;;;16.26;100.00
29907;BME280;16776;50.958;10.994;2023-09-19T03:03:03;97862.16;;;16.25;100.00
29907;BME280;16776;50.958;10.994;2023-09-19T03:05:31;97862.22;;;16.23;100.00
29907;BME280;16776;50.958;10.994;2023-09-19T03:07:58;97867.50;;;16.22;100.00
29907;BME280;16776;50.958;10.994;2023-09-19T03:10:27;97863.91;;;16.24;100.00
29907;BME280;16776;50.958;10.994;2023-09-19T03:12:55;97871.88;;;16.21;100.00
29907;BME280;16776;50.958;10.994;2023-09-19T03:15:22;97867.50;;;16.22;100.00
29907;BME280;16776;50.958;10.994;2023-09-19T03:17:49;97876.97;;;16.23;100.00
29907;BME280;16776;50.958;10.994;2023-09-19T03:20:16;97879.59;;;16.23;100.00
29907;BME280;16776;50.958;10.994;2023-09-19T03:22:43;97878.66;;;16.24;100.00
29907;BME280;16776;50.958;10.994;2023-09-19T03:25:09;97868.25;;;16.24;100.00
29907;BME280;16776;50.958;10.994;2023-09-19T03:27:41;97874.94;;;16.28;100.00
29907;BME280;16776;50.958;10.994;2023-09-19T03:30:08;97873.63;;;16.20;100.00
29907;BME280;16776;50.958;10.994;2023-09-19T03:32:35;97888.50;;;16.18;100.00
29907;BME280;16776;50.958;10.994;2023-09-19T03:35:04;97883.09;;;16.22;100.00
29907;BME280;16776;50.958;10.994;2023-09-19T03:37:31;97885.16;;;16.16;100.00
29907;BME280;16776;50.958;10.994;2023-09-19T03:39:59;97889.66;;;16.13;100.00
29907;BME280;16776;50.958;10.994;2023-09-19T03:42:29;97892.53;;;16.08;100.00
29907;BME280;16776;50.958;10.994;2023-09-19T03:44:57;97895.06;;;16.10;100.00
29907;BME280;16776;50.958;10.994;2023-09-19T03:47:25;97895.44;;;16.04;100.00
29907;BME280;16776;50.958;10.994;2023-09-19T03:49:51;97886.13;;;16.00;100.00
29907;BME280;16776;50.958;10.994;2023-09-19T03:52:18;97894.22;;;15.95;100.00
29907;BME280;16776;50.958;10.994;2023-09-19T03:54:44;97903.19;;;15.90;100.00
29907;BME280;16776;50.958;10.994;2023-09-19T03:57:11;97897.38;;;15.86;100.00
29907;BME280;16776;50.958;10.994;2023-09-19T03:59:41;97898.38;;;15.84;100.00
29907;BME280;16776;50.958;10.994;2023-09-19T04:02:09;97892.34;;;15.83;100.00
29907;BME280;16776;50.958;10.994;2023-09-19T04:04:47;97895.22;;;15.78;100.00
29907;BME280;16776;50.958;10.994;2023-09-19T04:07:13;97903.00;;;15.78;100.00
29907;BME280;16776;50.958;10.994;2023-09-19T04:09:40;97903.94;;;15.77;100.00
29907;BME280;16776;50.958;10.994;2023-09-19T04:12:07;97897.16;;;15.75;100.00
29907;BME280;16776;50.958;10.994;2023-09-19T04:14:34;97902.25;;;15.76;100.00
29907;BME280;16776;50.958;10.994;2023-09-19T04:17:00;97910.97;;;15.75;100.00
29907;BME280;16776;50.958;10.994;2023-09-19T04:19:28;97911.63;;;15.79;100.00
29907;BME280;16776;50.958;10.994;2023-09-19T04:21:55;97909.22;;;15.76;100.00
29907;BME280;16776;50.958;10.994;2023-09-19T04:24:22;97910.13;;;15.75;100.00
29907;BME280;16776;50.958;10.994;2023-09-19T04:26:48;97912.72;;;15.75;100.00
29907;BME280;16776;50.958;10.994;2023-09-19T04:29:15;97911.09;;;15.74;100.00
29907;BME280;16776;50.958;10.994;2023-09-19T04:31:44;97915.44;;;15.73;100.00
29907;BME280;16776;50.958;10.994;2023-09-19T04:34:11;97916.00;;;15.78;100.00
29907;BME280;16776;50.958;10.994;2023-09-19T04:36:44;97915.53;;;15.86;100.00
29907;BME280;16776;50.958;10.994;2023-09-19T04:39:10;97921.28;;;15.91;100.00
29907;BME280;16776;50.958;10.994;2023-09-19T04:41:38;97908.59;;;16.01;100.00
29907;BME280;16776;50.958;10.994;2023-09-19T04:44:06;97908.88;;;16.10;100.00
29907;BME280;16776;50.958;10.994;2023-09-19T04:46:33;97911.69;;;16.22;100.00
29907;BME280;16776;50.958;10.994;2023-09-19T04:49:00;97915.19;;;16.35;100.00
29907;BME280;16776;50.958;10.994;2023-09-19T04:51:27;97924.84;;;16.47;100.00
29907;BME280;16776;50.958;10.994;2023-09-19T04:53:59;97927.34;;;16.63;100.00
29907;BME280;16776;50.958;10.994;2023-09-19T04:56:26;97924.22;;;16.70;100.00
29907;BME280;16776;50.958;10.994;2023-09-19T04:58:53;97930.72;;;16.77;100.00
29907;BME280;16776;50.958;10.994;2023-09-19T05:01:20;97932.38;;;16.78;100.00
29907;BME280;16776;50.958;10.994;2023-09-19T05:03:47;97939.34;;;16.78;100.00
29907;BME280;16776;50.958;10.994;2023-09-19T05:06:19;97934.53;;;16.72;100.00
29907;BME280;16776;50.958;10.994;2023-09-19T05:08:46;97940.13;;;16.66;100.00
29907;BME280;16776;50.958;10.994;2023-09-19T05:11:17;97948.22;;;16.61;100.00
29907;BME280;16776;50.958;10.994;2023-09-19T05:13:43;97958.34;;;16.51;100.00
29907;BME280;16776;50.958;10.994;2023-09-19T05:16:10;97962.34;;;16.43;100.00
29907;BME280;16776;50.958;10.994;2023-09-19T05:18:36;97964.50;;;16.36;100.00
29907;BME280;16776;50.958;10.994;2023-09-19T05:21:03;97961.34;;;16.31;100.00
29907;BME280;16776;50.958;10.994;2023-09-19T05:23:29;97974.59;;;16.27;100.00
29907;BME280;16776;50.958;10.994;2023-09-19T05:25:56;97974.03;;;16.22;100.00
29907;BME280;16776;50.958;10.994;2023-09-19T05:28:26;97982.03;;;16.18;100.00
29907;BME280;16776;50.958;10.994;2023-09-19T05:30:55;97990.03;;;16.14;100.00
29907;BME280;16776;50.958;10.994;2023-09-19T05:33:26;97990.31;;;16.09;100.00
29907;BME280;16776;50.958;10.994;2023-09-19T05:35:52;97992.16;;;16.07;100.00
29907;BME280;16776;50.958;10.994;2023-09-19T05:38:19;97998.41;;;16.05;100.00
29907;BME280;16776;50.958;10.994;2023-09-19T05:40:46;97992.38;;;16.04;100.00
29907;BME280;16776;50.958;10.994;2023-09-19T05:43:13;97990.41;;;16.08;100.00
29907;BME280;16776;50.958;10.994;2023-09-19T05:45:41;97989.91;;;16.17;100.00
29907;BME280;16776;50.958;10.994;2023-09-19T05:48:08;97989.53;;;16.23;100.00
29907;BME280;16776;50.958;10.994;2023-09-19T05:50:36;97991.56;;;16.32;100.00
29907;BME280;16776;50.958;10.994;2023-09-19T05:53:03;97992.63;;;16.44;100.00
29907;BME280;16776;50.958;10.994;2023-09-19T05:55:30;97998.06;;;16.53;100.00
29907;BME280;16776;50.958;10.994;2023-09-19T05:57:57;97991.28;;;16.65;100.00
29907;BME280;16776;50.958;10.994;2023-09-19T06:00:24;98004.47;;;16.76;100.00
29907;BME280;16776;50.958;10.994;2023-09-19T06:02:54;97995.09;;;16.88;100.00
29907;BME280;16776;50.958;10.994;2023-09-19T06:05:22;97993.09;;;16.91;100.00
29907;BME280;16776;50.958;10.994;2023-09-19T06:07:50;97991.09;;;16.96;100.00
29907;BME280;16776;50.958;10.994;2023-09-19T06:10:18;97993.28;;;17.03;100.00
29907;BME280;16776;50.958;10.994;2023-09-19T06:12:46;97997.19;;;17.10;100.00
29907;BME280;16776;50.958;10.994;2023-09-19T06:15:14;97998.69;;;17.14;100.00
29907;BME280;16776;50.958;10.994;2023-09-19T06:17:42;97995.88;;;17.17;100.00
29907;BME280;16776;50.958;10.994;2023-09-19T06:20:11;97990.38;;;17.21;100.00
29907;BME280;16776;50.958;10.994;2023-09-19T06:22:40;98000.91;;;17.20;100.00
29907;BME280;16776;50.958;10.994;2023-09-19T06:25:07;98001.81;;;17.19;100.00
29907;BME280;16776;50.958;10.994;2023-09-19T06:27:37;97998.28;;;17.20;100.00
29907;BME280;16776;50.958;10.994;2023-09-19T06:30:04;98003.50;;;17.20;100.00
29907;BME280;16776;50.958;10.994;2023-09-19T06:32:33;98002.66;;;17.19;100.00
29907;BME280;16776;50.958;10.994;2023-09-19T06:34:59;98013.06;;;17.19;100.00
29907;BME280;16776;50.958;10.994;2023-09-19T06:37:28;98007.66;;;17.22;100.00
29907;BME280;16776;50.958;10.994;2023-09-19T06:39:54;98003.69;;;17.17;100.00
29907;BME280;16776;50.958;10.994;2023-09-19T06:42:22;98001.16;;;17.15;100.00
29907;BME280;16776;50.958;10.994;2023-09-19T06:44:49;98012.41;;;17.16;100.00
29907;BME280;16776;50.958;10.994;2023-09-19T06:47:15;98020.22;;;17.16;100.00
29907;BME280;16776;50.958;10.994;2023-09-19T06:49:42;98019.28;;;17.17;100.00
29907;BME280;16776;50.958;10.994;2023-09-19T06:52:09;98016.91;;;17.14;100.00
29907;BME280;16776;50.958;10.994;2023-09-19T06:54:37;98023.56;;;17.18;100.00
29907;BME280;16776;50.958;10.994;2023-09-19T06:57:05;98029.69;;;17.17;100.00
29907;BME280;16776;50.958;10.994;2023-09-19T06:59:34;98038.44;;;17.16;100.00
29907;BME280;16776;50.958;10.994;2023-09-19T07:02:02;98026.00;;;17.07;100.00
29907;BME280;16776;50.958;10.994;2023-09-19T07:04:31;98040.31;;;17.14;100.00
29907;BME280;16776;50.958;10.994;2023-09-19T07:06:58;98048.84;;;17.16;100.00
29907;BME280;16776;50.958;10.994;2023-09-19T07:09:24;98054.03;;;17.16;100.00
29907;BME280;16776;50.958;10.994;2023-09-19T07:11:53;98056.47;;;17.19;100.00
29907;BME280;16776;50.958;10.994;2023-09-19T07:14:20;98060.91;;;17.17;100.00
29907;BME280;16776;50.958;10.994;2023-09-19T07:16:47;98063.53;;;17.17;100.00
29907;BME280;16776;50.958;10.994;2023-09-19T07:19:16;98066.97;;;17.17;100.00
29907;BME280;16776;50.958;10.994;2023-09-19T07:21:42;98078.28;;;17.16;100.00
29907;BME280;16776;50.958;10.994;2023-09-19T07:24:09;98087.97;;;17.14;100.00
29907;BME280;16776;50.958;10.994;2023-09-19T07:26:35;98096.81;;;17.12;100.00
29907;BME280;16776;50.958;10.994;2023-09-19T07:29:03;98106.47;;;17.10;100.00
29907;BME280;16776;50.958;10.994;2023-09-19T07:31:34;98111.13;;;17.05;100.00
29907;BME280;16776;50.958;10.994;2023-09-19T07:34:00;98107.75;;;17.03;100.00
29907;BME280;16776;50.958;10.994;2023-09-19T07:36:29;98120.88;;;17.01;100.00
29907;BME280;16776;50.958;10.994;2023-09-19T07:38:55;98119.13;;;17.02;100.00
29907;BME280;16776;50.958;10.994;2023-09-19T07:41:23;98125.88;;;17.04;100.00
29907;BME280;16776;50.958;10.994;2023-09-19T07:43:50;98124.88;;;17.07;100.00
29907;BME280;16776;50.958;10.994;2023-09-19T07:46:18;98138.44;;;17.12;100.00
29907;BME280;16776;50.958;10.994;2023-09-19T07:48:46;98140.09;;;17.13;100.00
29907;BME280;16776;50.958;10.994;2023-09-19T07:51:14;98131.25;;;17.15;100.00
29907;BME280;16776;50.958;10.994;2023-09-19T07:53:42;98119.38;;;17.11;100.00
29907;BME280;16776;50.958;10.994;2023-09-19T07:56:09;98140.66;;;17.18;100.00
29907;BME280;16776;50.958;10.994;2023-09-19T07:58:39;98137.75;;;17.22;100.00
29907;BME280;16776;50.958;10.994;2023-09-19T08:01:10;98142.13;;;17.22;100.00
29907;BME280;16776;50.958;10.994;2023-09-19T08:03:40;98147.72;;;17.30;100.00
29907;BME280;16776;50.958;10.994;2023-09-19T08:06:09;98152.25;;;17.40;100.00
29907;BME280;16776;50.958;10.994;2023-09-19T08:08:36;98149.16;;;17.48;100.00
29907;BME280;16776;50.958;10.994;2023-09-19T08:11:04;98161.63;;;17.57;100.00
29907;BME280;16776;50.958;10.994;2023-09-19T08:13:36;98157.88;;;17.61;100.00
29907;BME280;16776;50.958;10.994;2023-09-19T08:16:06;98171.09;;;17.72;100.00
29907;BME280;16776;50.958;10.994;2023-09-19T08:18:36;98165.53;;;17.78;100.00
29907;BME280;16776;50.958;10.994;2023-09-19T08:21:04;98171.06;;;17.87;100.00
29907;BME280;16776;50.958;10.994;2023-09-19T08:23:33;98184.91;;;17.87;99.52
29907;BME280;16776;50.958;10.994;2023-09-19T08:26:00;98181.28;;;17.90;100.00
29907;BME280;16776;50.958;10.994;2023-09-19T08:28:32;98181.84;;;17.95;99.62
29907;BME280;16776;50.958;10.994;2023-09-19T08:31:01;98178.53;;;18.05;99.22
29907;BME280;16776;50.958;10.994;2023-09-19T08:33:30;98176.75;;;18.06;98.47
29907;BME280;16776;50.958;10.994;2023-09-19T08:35:57;98170.44;;;18.10;97.90
29907;BME280;16776;50.958;10.994;2023-09-19T08:38:26;98178.56;;;18.18;98.03
29907;BME280;16776;50.958;10.994;2023-09-19T08:40:57;98171.94;;;18.27;98.49
29907;BME280;16776;50.958;10.994;2023-09-19T08:43:25;98176.66;;;18.34;98.20
29907;BME280;16776;50.958;10.994;2023-09-19T08:45:54;98177.56;;;18.47;98.00
29907;BME280;16776;50.958;10.994;2023-09-19T08:48:26;98186.66;;;18.54;96.66
29907;BME280;16776;50.958;10.994;2023-09-19T08:50:56;98182.88;;;18.58;96.77
29907;BME280;16776;50.958;10.994;2023-09-19T08:53:29;98192.31;;;18.74;98.65
29907;BME280;16776;50.958;10.994;2023-09-19T08:55:59;98201.16;;;18.71;95.87
29907;BME280;16776;50.958;10.994;2023-09-19T08:58:31;98198.66;;;18.82;96.29
29907;BME280;16776;50.958;10.994;2023-09-19T09:01:01;98208.91;;;18.85;95.59
29907;BME280;16776;50.958;10.994;2023-09-19T09:03:32;98199.50;;;18.95;95.40
29907;BME280;16776;50.958;10.994;2023-09-19T09:05:59;98196.19;;;18.93;95.44
29907;BME280;16776;50.958;10.994;2023-09-19T09:08:30;98196.28;;;19.05;95.98
29907;BME280;16776;50.958;10.994;2023-09-19T09:10:58;98187.63;;;19.04;95.64
29907;BME280;16776;50.958;10.994;2023-09-19T09:13:29;98187.41;;;19.07;95.08
29907;BME280;16776;50.958;10.994;2023-09-19T09:15:56;98192.22;;;19.13;95.04
29907;BME280;16776;50.958;10.994;2023-09-19T09:18:24;98185.94;;;19.16;94.35
29907;BME280;16776;50.958;10.994;2023-09-19T09:20:51;98184.00;;;19.19;94.87
29907;BME280;16776;50.958;10.994;2023-09-19T09:23:18;98180.13;;;19.25;94.95
29907;BME280;16776;50.958;10.994;2023-09-19T09:25:51;98190.56;;;19.38;94.46
29907;BME280;16776;50.958;10.994;2023-09-19T09:28:23;98170.94;;;19.32;94.12
29907;BME280;16776;50.958;10.994;2023-09-19T09:30:51;98173.13;;;19.38;94.49
29907;BME280;16776;50.958;10.994;2023-09-19T09:33:18;98168.50;;;19.42;93.40
29907;BME280;16776;50.958;10.994;2023-09-19T09:36:02;98169.31;;;19.55;94.40
29907;BME280;16776;50.958;10.994;2023-09-19T09:38:43;98175.47;;;19.54;94.06
29907;BME280;16776;50.958;10.994;2023-09-19T09:41:12;98177.78;;;19.46;92.64
29907;BME280;16776;50.958;10.994;2023-09-19T09:43:52;98172.69;;;19.44;91.70
29907;BME280;16776;50.958;10.994;2023-09-19T09:46:21;98175.91;;;19.48;92.76
29907;BME280;16776;50.958;10.994;2023-09-19T09:49:05;98161.91;;;19.49;92.59
29907;BME280;16776;50.958;10.994;2023-09-19T09:51:48;98164.09;;;19.55;92.68
29907;BME280;16776;50.958;10.994;2023-09-19T09:54:23;98172.22;;;19.63;92.58
29907;BME280;16776;50.958;10.994;2023-09-19T09:56:55;98173.34;;;19.71;92.96
29907;BME280;16776;50.958;10.994;2023-09-19T09:59:48;98171.66;;;19.83;92.93
29907;BME280;16776;50.958;10.994;2023-09-19T10:02:25;98162.34;;;19.79;92.57
29907;BME280;16776;50.958;10.994;2023-09-19T10:04:55;98170.81;;;19.83;92.44
29907;BME280;16776;50.958;10.994;2023-09-19T10:07:40;98168.69;;;19.88;92.47
29907;BME280;16776;50.958;10.994;2023-09-19T10:10:29;98168.22;;;20.06;93.78
29907;BME280;16776;50.958;10.994;2023-09-19T10:13:05;98174.28;;;20.07;93.60
29907;BME280;16776;50.958;10.994;2023-09-19T10:15:33;98167.69;;;20.14;92.96
29907;BME280;16776;50.958;10.994;2023-09-19T10:18:01;98167.81;;;20.24;92.90
29907;BME280;16776;50.958;10.994;2023-09-19T10:20:33;98160.34;;;20.30;93.08
29907;BME280;16776;50.958;10.994;2023-09-19T10:23:07;98166.97;;;20.47;92.51
29907;BME280;16776;50.958;10.994;2023-09-19T10:25:39;98171.97;;;20.50;93.14
29907;BME280;16776;50.958;10.994;2023-09-19T10:28:08;98172.03;;;20.61;92.93
29907;BME280;16776;50.958;10.994;2023-09-19T10:30:37;98174.31;;;20.66;92.18
29907;BME280;16776;50.958;10.994;2023-09-19T10:33:07;98171.34;;;20.70;92.36
29907;BME280;16776;50.958;10.994;2023-09-19T10:35:38;98163.50;;;20.81;91.66
29907;BME280;16776;50.958;10.994;2023-09-19T10:38:06;98168.75;;;20.81;91.44
29907;BME280;16776;50.958;10.994;2023-09-19T10:40:35;98163.63;;;20.80;91.70
29907;BME280;16776;50.958;10.994;2023-09-19T10:43:03;98172.81;;;20.85;91.62
29907;BME280;16776;50.958;10.994;2023-09-19T10:45:33;98163.75;;;20.89;91.36
29907;BME280;16776;50.958;10.994;2023-09-19T10:48:01;98162.81;;;20.90;91.30
29907;BME280;16776;50.958;10.994;2023-09-19T10:50:32;98172.72;;;20.98;91.41
29907;BME280;16776;50.958;10.994;2023-09-19T10:53:02;98166.38;;;21.01;91.42
29907;BME280;16776;50.958;10.994;2023-09-19T10:55:33;98172.94;;;21.06;91.25
29907;BME280;16776;50.958;10.994;2023-09-19T10:58:01;98164.03;;;21.09;90.97
29907;BME280;16776;50.958;10.994;2023-09-19T11:00:52;98175.09;;;21.23;92.07
29907;BME280;16776;50.958;10.994;2023-09-19T11:03:20;98172.97;;;21.17;90.47
29907;BME280;16776;50.958;10.994;2023-09-19T11:06:03;98164.03;;;21.31;90.96
29907;BME280;16776;50.958;10.994;2023-09-19T11:08:55;98167.38;;;21.33;90.96
29907;BME280;16776;50.958;10.994;2023-09-19T11:11:44;98169.78;;;21.36;91.51
29907;BME280;16776;50.958;10.994;2023-09-19T11:14:37;98167.50;;;21.43;91.74
29907;BME280;16776;50.958;10.994;2023-09-19T11:17:31;98167.88;;;21.49;91.29
29907;BME280;16776;50.958;10.994;2023-09-19T11:20:23;98156.91;;;21.55;91.05
29907;BME280;16776;50.958;10.994;2023-09-19T11:23:16;98162.59;;;21.60;90.73
29907;BME280;16776;50.958;10.994;2023-09-19T11:25:44;98152.84;;;21.51;89.91
29907;BME280;16776;50.958;10.994;2023-09-19T11:28:34;98140.22;;;21.56;90.18
29907;BME280;16776;50.958;10.994;2023-09-19T11:34:46;98143.03;;;21.64;89.64
29907;BME280;16776;50.958;10.994;2023-09-19T11:43:38;98140.25;;;21.34;87.61
29907;BME280;16776;50.958;10.994;2023-09-19T11:46:06;98139.66;;;21.30;87.85
29907;BME280;16776;50.958;10.994;2023-09-19T11:48:43;98122.38;;;21.28;87.57
29907;BME280;16776;50.958;10.994;2023-09-19T11:51:19;98148.69;;;21.38;87.60
29907;BME280;16776;50.958;10.994;2023-09-19T11:53:48;98139.78;;;21.29;87.93
29907;BME280;16776;50.958;10.994;2023-09-19T11:56:16;98145.47;;;21.34;87.21
29907;BME280;16776;50.958;10.994;2023-09-19T11:58:44;98148.44;;;21.41;86.76
29907;BME280;16776;50.958;10.994;2023-09-19T12:01:13;98147.84;;;21.48;86.49
29907;BME280;16776;50.958;10.994;2023-09-19T12:03:47;98146.19;;;21.47;86.27
29907;BME280;16776;50.958;10.994;2023-09-19T12:06:16;98152.16;;;21.49;85.93
29907;BME280;16776;50.958;10.994;2023-09-19T12:08:44;98152.38;;;21.46;86.04
29907;BME280;16776;50.958;10.994;2023-09-19T12:11:16;98149.25;;;21.52;86.17
29907;BME280;16776;50.958;10.994;2023-09-19T12:13:46;98144.41;;;21.48;85.76
29907;BME280;16776;50.958;10.994;2023-09-19T12:16:15;98151.53;;;21.46;85.85
29907;BME280;16776;50.958;10.994;2023-09-19T12:18:43;98146.41;;;21.44;86.28
29907;BME280;16776;50.958;10.994;2023-09-19T12:21:29;98137.84;;;21.53;86.77
29907;BME280;16776;50.958;10.994;2023-09-19T12:24:04;98122.38;;;21.39;85.74
29907;BME280;16776;50.958;10.994;2023-09-19T12:26:39;98142.84;;;21.45;86.15
29907;BME280;16776;50.958;10.994;2023-09-19T12:29:14;98137.97;;;21.41;85.50
29907;BME280;16776;50.958;10.994;2023-09-19T12:31:52;98157.16;;;21.41;86.29
29907;BME280;16776;50.958;10.994;2023-09-19T12:34:24;98151.66;;;21.33;85.00
29907;BME280;16776;50.958;10.994;2023-09-19T12:37:07;98150.72;;;21.34;86.32
29907;BME280;16776;50.958;10.994;2023-09-19T12:39:39;98139.38;;;21.22;85.37
29907;BME280;16776;50.958;10.994;2023-09-19T12:42:08;98159.28;;;21.25;84.21
29907;BME280;16776;50.958;10.994;2023-09-19T12:44:37;98158.22;;;21.27;83.72
29907;BME280;16776;50.958;10.994;2023-09-19T12:47:11;98159.53;;;21.33;84.46
29907;BME280;16776;50.958;10.994;2023-09-19T12:50:06;98157.63;;;21.35;83.68
29907;BME280;16776;50.958;10.994;2023-09-19T12:52:41;98149.97;;;21.21;83.62
29907;BME280;16776;50.958;10.994;2023-09-19T12:55:19;98155.84;;;21.24;82.99
29907;BME280;16776;50.958;10.994;2023-09-19T12:57:56;98163.31;;;21.18;83.56
29907;BME280;16776;50.958;10.994;2023-09-19T13:00:31;98140.22;;;21.01;83.88
29907;BME280;16776;50.958;10.994;2023-09-19T13:03:11;98160.69;;;21.18;83.79
29907;BME280;16776;50.958;10.994;2023-09-19T13:05:50;98163.31;;;21.18;83.22
29907;BME280;16776;50.958;10.994;2023-09-19T13:08:20;98154.03;;;21.14;82.83
29907;BME280;16776;50.958;10.994;2023-09-19T13:11:17;98157.84;;;21.21;84.13
29907;BME280;16776;50.958;10.994;2023-09-19T13:13:47;98153.78;;;21.06;83.25